NCAR-RAP Real-Time Weather Data

Output produced by METARs form (23 July 2018  17:11 UTC)
found at http://weather.rap.ucar.edu/surface/
 
KGFK 231653Z 28011G17KT 10SM SCT038 24/17 A3006 RMK AO2 SLP177 T02440167
KGFK 231553Z 31010KT 10SM FEW030 23/16 A3007 RMK AO2 SLP180 T02280156
 
KRDR 231656Z AUTO 31013KT 10SM FEW038 23/15 A3008 RMK AO2 SLP188 T02330146 $
KRDR 231556Z AUTO 32008KT 10SM CLR 23/16 A3008 RMK AO2 SLP189 T02250156 $
 
KCKN 231655Z AUTO 30012G18KT 10SM SCT033 23/15 A3008 RMK AO2
KCKN 231635Z AUTO 31011KT 10SM CLR 23/16 A3008 RMK AO2
KCKN 231615Z AUTO 29010KT 10SM CLR 23/16 A3008 RMK AO2
KCKN 231555Z AUTO 31011KT 10SM CLR 22/16 A3008 RMK AO2
KCKN 231535Z AUTO 31008KT 10SM CLR 22/16 A3008 RMK AO2
KCKN 231515Z AUTO 30009KT 10SM CLR 21/16 A3008 RMK AO2
 
KBIS 231652Z 29010KT 10SM CLR 24/10 A3022 RMK AO2 SLP226 T02440100
KBIS 231552Z 31012G19KT 10SM CLR 23/09 A3022 RMK AO2 SLP228 T02330094
 
KJMS 231656Z AUTO 32016G23KT 10SM CLR 23/12 A3015 RMK AO2 SLP203 T02280117
KJMS 231556Z AUTO 33016G20KT 10SM CLR 22/12 A3016 RMK AO2 SLP208 T02220117
 
KFAR 231653Z 30012KT 10SM CLR 26/15 A3009 RMK AO2 SLP185 T02560150
KFAR 231553Z 31012KT 10SM CLR 24/16 A3010 RMK AO2 SLP189 T02390156
 
KJKJ 231655Z AUTO 32006G16KT 10SM CLR 24/15 A3010 RMK AO2
KJKJ 231635Z AUTO 30012G17KT 10SM CLR 24/15 A3010 RMK AO2
KJKJ 231615Z AUTO 32009KT 10SM CLR 24/16 A3010 RMK AO2
KJKJ 231555Z AUTO 32006KT 10SM CLR 23/15 A3010 RMK AO2
KJKJ 231535Z AUTO 34006KT 10SM CLR 23/15 A3011 RMK AO2
KJKJ 231515Z AUTO 35005KT 10SM CLR 22/14 A3011 RMK AO2